Morrison, Oklahoma
Current Conditions -  °F | °C
As of 5:53 PM on Wednesday 22 Oct 2014 (Local Time) from KSWO Reporting Station
Few Clouds Few Clouds  
Wind Chill: 75°   Ceiling: Unl
Heat Index: 75°   Visibility: 10mi
Dew Point: 58°   Wind: 10mph
Humidity: 55%   Direction: 170°S
Pressure: 30.07"   Gusts: NA
Location:  36.3°N, 97.01°W
Report Text: KSWO 222253Z AUTO 17009KT 10SM FEW050 24/14 A3007 RMK AO2 SLP172 T02390144
Loading
Personal Weather Stations






























Interactive Weather Map
Tropical Storm Tracking
New forecast layout! Learn more

10-Day Weather Forecast

Advertisements
Track Severe Weather on mobile